Aérodrome :
LOGIN :

S'inscrire | Disclaimer

   EN    FR    IT 

 










Légende :    VFR   VFR Marginal   IFR   IFR Intensif   IFR Très Intensif
Visi : 
Plafond : 
>= 8 km
>= 3000ft
5 à 8 km
1000 à 3000 ft
1500m à 5 km
500 à 1000 ft
800 à 1500m
200 à 500 ft
< 800m
< 200 ft
Symboles :   Orages  Brouillard  Fortes neiges  Fortes précipitations  Vent > 20 kt
SIGMETs :   Divers  Orages  Givrage  Turbulence  Onde Orograph.  Cendres Volcan.






- Altitude de l'aérodrome : 144 ft
- Code IATA : PGF


LFMP - Perpignan

DERNIER METAR :
  • 311600Z AUTO 08009KT 9999 FEW017 BKN045 BKN056 23/18 Q1013 NOSIG

METARs EXPIRÉS :
  • 311530Z AUTO 09011KT 9999 FEW046 BKN056 22/17 Q1013 NOSIG
  • 311500Z AUTO 10010KT 070V130 9999 FEW018 BKN056 23/17 Q1014 NOSIG
  • 311430Z AUTO 09011KT 9999 FEW016 BKN054 23/17 Q1013 NOSIG
  • 311400Z AUTO 10011KT 060V120 9999 FEW018 BKN054 23/17 Q1014 NOSIG
  • 311330Z AUTO 11010KT 9999 FEW017 BKN054 23/17 Q1014 NOSIG

TAF TAF LFMP
Valide du 31 à 15h jusqu'au 01 à 15h UTC


311400Z 3115/0115 10012KT 9999 SCT020 BKN025
BECMG 3119/3121 30008KT
PROB30
TEMPO 0103/0107 BKN014
TEMPO 0111/0115 SHRA FEW026CB BKN050
PROB30
TEMPO 0111/0115 TSRA
ATIS : +33 4 68 63 75 12



MET'MAP, la Météo Aéronautique d'un coup d'oeil ! - Copyright ORBIFLY Décembre 2007 - Disclaimer

ORBIFLY MET'MAP TEAM :

Programmation & Développement : Alexandra Zaïnal
Sur une idée originale de : Baudouin d'Aumeries
Assistance à la programmation : Marc-Olivier Méhu
Soutien technique & logistique : Manuel Goepfert

Contact : metmap@orbifly.com




SOURCES & CREDITS :

   NOAA